Terminal Aerodrome Forecast
Issued by NWS

Home | Current Version | Previous Version | Text Only | Print | Product List | Glossary On
Versions: 1 2 3 4 5 6 7 8 9 10 11 12 13
104
FTUS42 KTAE 262338
TAFABY
TAF
KABY 262338Z 2700/2724 31006KT 6SM -RA BKN050
     FM270100 25006KT P6SM FEW050 SCT250
     FM271000 00000KT P6SM BKN025
     FM271400 30008KT P6SM SCT030 BKN250=

USA.gov is the U.S. government's official web portal to all federal, state and local government web resources and services.